<-- eyeonlakeo.com   Last Update Next Autoupdate           ---------------- Click for other years ----------------
  3/7/2021 8:45 PM 3/8/2021 12:45 AM         2021 2020 2019 2018 2017 2016
 
                               
Lake and C-44 Basin Discharges
1/1/2021 to 3/7/2021
                         
                                 
                                 
                                 
                                 
                                 
                                 
                                 
                                 
                                 
                                 
                                 
                                 
                                 
                                 
                                 
                                 
                                 
                                 
                                 
                                 
                                 
                                 
                                 
                                 
                                 
                                 
                                 
                                 
                                 
                                 
                                 
                                 
                                 
                                 
                                 
                                 
                                 
                                 
                                 
                                 
                                 
                                 
                                 
                                 
                                 
                                 
                                 
  Cubic Feet Per Second (cfs) Acre-Feet (ft) (ft) (in)
  S80_S S308_S
Daily
S308_S to C-44 S308_S to Lake Basin Flow
 [S-80] - [S-308 to C-44]
Lake Flow
 [S-80] - Basin Flow
S80_S S308_S
Daily
S308_S to C-44 S308_S to Lake Basin Flow
 [S-80] - [S-308 to C-44]
Lake Flow
 [S-80] - Basin Flow
 S-308
Cumulative
Lake Stage
N3466
Mean C-44 Stage at S-80H Rain at C44B5A_R
Date DJ238 DJ239         DJ238 DJ239                
1/1/2021 112.00 0.00 0.00 0.00 112.00 0.00 222.15 0.00 0.00 0.00 222.15 0.00 0.00 15.81 14.30 0.00
1/2/2021 717.00 925.00 925.00 0.00 0.00 717.00 1,422.15 1,834.71 1,834.71 0.00 0.00 1,422.15 1,834.71 15.81 14.40 0.00
1/3/2021 1,047.00 1,170.00 1,170.00 0.00 0.00 1,047.00 2,076.70 2,320.67 2,320.67 0.00 0.00 2,076.70 4,155.38 15.80 14.36 0.00
1/4/2021 1,044.00 1,144.00 1,144.00 0.00 0.00 1,044.00 2,070.75 2,269.10 2,269.10 0.00 0.00 2,070.75 6,424.48 15.78 14.25 0.00
1/5/2021 991.00 1,156.00 1,156.00 0.00 0.00 991.00 1,965.62 2,292.90 2,292.90 0.00 0.00 1,965.62 8,717.38 15.76 14.17 0.00
1/6/2021 920.00 1,090.00 1,090.00 0.00 0.00 920.00 1,824.80 2,161.99 2,161.99 0.00 0.00 1,824.80 10,879.36 15.72 14.28 0.00
1/7/2021 1,007.00 1,086.00 1,086.00 0.00 0.00 1,007.00 1,997.36 2,154.05 2,154.05 0.00 0.00 1,997.36 13,033.42 15.72 14.27 0.01
1/8/2021 309.00 358.00 358.00 0.00 0.00 309.00 612.89 710.08 710.08 0.00 0.00 612.89 13,743.50 15.70 14.22 0.00
1/9/2021 0.00 0.00 0.00 0.00 0.00 0.00 0.00 0.00 0.00 0.00 0.00 0.00 13,743.50 15.68 14.23 0.00
1/10/2021 0.00 0.00 0.00 0.00 0.00 0.00 0.00 0.00 0.00 0.00 0.00 0.00 13,743.50 15.66 14.29 0.00
1/11/2021 51.00 0.00 0.00 0.00 51.00 0.00 101.16 0.00 0.00 0.00 101.16 0.00 13,743.50 15.66 14.26 0.00
1/12/2021 0.00 0.00 0.00 0.00 0.00 0.00 0.00 0.00 0.00 0.00 0.00 0.00 13,743.50 15.66 14.22 0.02
1/13/2021 0.00 0.00 0.00 0.00 0.00 0.00 0.00 0.00 0.00 0.00 0.00 0.00 13,743.50 15.65 14.21 0.11
1/14/2021 0.00 0.00 0.00 0.00 0.00 0.00 0.00 0.00 0.00 0.00 0.00 0.00 13,743.50 15.66 14.18 0.05
1/15/2021 0.00 0.00 0.00 0.00 0.00 0.00 0.00 0.00 0.00 0.00 0.00 0.00 13,743.50 15.66 14.18 0.00
1/16/2021 0.00 0.00 0.00 0.00 0.00 0.00 0.00 0.00 0.00 0.00 0.00 0.00 13,743.50 15.64 14.21 0.00
1/17/2021 0.00 0.00 0.00 0.00 0.00 0.00 0.00 0.00 0.00 0.00 0.00 0.00 13,743.50 15.64 14.25 0.00
1/18/2021 0.00 0.00 0.00 0.00 0.00 0.00 0.00 0.00 0.00 0.00 0.00 0.00 13,743.50 15.63 14.28 0.00
1/19/2021 0.00 0.00 0.00 0.00 0.00 0.00 0.00 0.00 0.00 0.00 0.00 0.00 13,743.50 15.61 14.17 0.00
1/20/2021 0.00 0.00 0.00 0.00 0.00 0.00 0.00 0.00 0.00 0.00 0.00 0.00 13,743.50 15.61 14.04 0.00
1/21/2021 0.00 0.00 0.00 0.00 0.00 0.00 0.00 0.00 0.00 0.00 0.00 0.00 13,743.50 15.60 13.93 0.00
1/22/2021 0.00 0.00 0.00 0.00 0.00 0.00 0.00 0.00 0.00 0.00 0.00 0.00 13,743.50 15.59 13.77 0.00
1/23/2021 0.00 0.00 0.00 0.00 0.00 0.00 0.00 0.00 0.00 0.00 0.00 0.00 13,743.50 15.58 13.66 0.00
1/24/2021 0.00 0.00 0.00 0.00 0.00 0.00 0.00 0.00 0.00 0.00 0.00 0.00 13,743.50 15.57 13.73 0.00
1/25/2021 0.00 0.00 0.00 0.00 0.00 0.00 0.00 0.00 0.00 0.00 0.00 0.00 13,743.50 15.57 13.75 0.01
1/26/2021 0.00 0.00 0.00 0.00 0.00 0.00 0.00 0.00 0.00 0.00 0.00 0.00 13,743.50 15.57 13.67 0.00
1/27/2021 0.00 0.00 0.00 0.00 0.00 0.00 0.00 0.00 0.00 0.00 0.00 0.00 13,743.50 15.56 13.66 0.00
1/28/2021 0.00 0.00 0.00 0.00 0.00 0.00 0.00 0.00 0.00 0.00 0.00 0.00 13,743.50 15.51 13.61 0.00
1/29/2021 0.00 0.00 0.00 0.00 0.00 0.00 0.00 0.00 0.00 0.00 0.00 0.00 13,743.50 15.47 13.52 0.00
1/30/2021 0.00 0.00 0.00 0.00 0.00 0.00 0.00 0.00 0.00 0.00 0.00 0.00 13,743.50 15.47 13.47 0.00
1/31/2021 0.00 0.00 0.00 0.00 0.00 0.00 0.00 0.00 0.00 0.00 0.00 0.00 13,743.50 15.47 13.47 0.02
2/1/2021 0.00 179.00 179.00 0.00 0.00 0.00 0.00 355.04 355.04 0.00 0.00 0.00 14,098.54 15.43 13.70 0.39
2/2/2021 0.00 0.00 0.00 0.00 0.00 0.00 0.00 0.00 0.00 0.00 0.00 0.00 14,098.54 15.41 13.91 0.00
2/3/2021 0.00 135.00 135.00 0.00 0.00 0.00 0.00 267.77 267.77 0.00 0.00 0.00 14,366.31 15.39 13.87 0.00
2/4/2021 0.00 183.00 183.00 0.00 0.00 0.00 0.00 362.98 362.98 0.00 0.00 0.00 14,729.29 15.37 13.95 0.00
2/5/2021 0.00 56.00 56.00 0.00 0.00 0.00 0.00 111.07 111.07 0.00 0.00 0.00 14,840.36 15.36 14.04 0.00
2/6/2021 0.00 0.00 0.00 0.00 0.00 0.00 0.00 0.00 0.00 0.00 0.00 0.00 14,840.36 15.36 14.21 0.00
2/7/2021 195.00 0.00 0.00 0.00 195.00 0.00 386.78 0.00 0.00 0.00 386.78 0.00 14,840.36 15.38 14.26 0.19
2/8/2021 0.00 0.00 0.00 0.00 0.00 0.00 0.00 0.00 0.00 0.00 0.00 0.00 14,840.36 15.40 14.16 0.22
2/9/2021 0.00 0.00 0.00 0.00 0.00 0.00 0.00 0.00 0.00 0.00 0.00 0.00 14,840.36 15.40 14.23 0.01
2/10/2021 0.00 0.00 0.00 0.00 0.00 0.00 0.00 0.00 0.00 0.00 0.00 0.00 14,840.36 15.40 14.03 0.01
2/11/2021 0.00 287.00 287.00 0.00 0.00 0.00 0.00 569.26 569.26 0.00 0.00 0.00 15,409.62 15.39 14.06 0.00
2/12/2021 0.00 0.00 0.00 0.00 0.00 0.00 0.00 0.00 0.00 0.00 0.00 0.00 15,409.62 15.38 14.12 0.00
2/13/2021 0.00 0.00 0.00 0.00 0.00 0.00 0.00 0.00 0.00 0.00 0.00 0.00 15,409.62 15.40 14.07 0.06
2/14/2021 0.00 0.00 0.00 0.00 0.00 0.00 0.00 0.00 0.00 0.00 0.00 0.00 15,409.62 15.43 14.28 0.07
2/15/2021 0.00 0.00 0.00 0.00 0.00 0.00 0.00 0.00 0.00 0.00 0.00 0.00 15,409.62 15.44 14.25 0.00
2/16/2021 0.00 0.00 0.00 0.00 0.00 0.00 0.00 0.00 0.00 0.00 0.00 0.00 15,409.62 15.45 14.17 0.37
2/17/2021 0.00 0.00 0.00 0.00 0.00 0.00 0.00 0.00 0.00 0.00 0.00 0.00 15,409.62 15.47 14.21 0.98
2/18/2021 261.00 0.00 0.00 0.00 261.00 0.00 517.69 0.00 0.00 0.00 517.69 0.00 15,409.62 15.51 14.26 0.01
2/19/2021 260.00 0.00 0.00 0.00 260.00 0.00 515.70 0.00 0.00 0.00 515.70 0.00 15,409.62 15.50 14.23 0.00
2/20/2021 0.00 0.00 0.00 0.00 0.00 0.00 0.00 0.00 0.00 0.00 0.00 0.00 15,409.62 15.45 14.17 0.00
2/21/2021 0.00 0.00 0.00 0.00 0.00 0.00 0.00 0.00 0.00 0.00 0.00 0.00 15,409.62 15.42 14.06 0.00
2/22/2021 0.00 0.00 0.00 0.00 0.00 0.00 0.00 0.00 0.00 0.00 0.00 0.00 15,409.62 15.41 13.99 0.00
2/23/2021 258.00 0.00 0.00 0.00 258.00 0.00 511.74 0.00 0.00 0.00 511.74 0.00 15,409.62 15.42 13.48 0.17
2/24/2021 232.00 406.00 406.00 0.00 0.00 232.00 460.17 805.29 805.29 0.00 0.00 460.17 16,214.91 15.40 13.23 0.00
2/25/2021 0.00 251.00 251.00 0.00 0.00 0.00 0.00 497.85 497.85 0.00 0.00 0.00 16,712.77 15.38 13.66 0.00
2/26/2021 0.00 424.00 424.00 0.00 0.00 0.00 0.00 840.99 840.99 0.00 0.00 0.00 17,553.76 15.36 13.81 0.00
2/27/2021 0.00 0.00 0.00 0.00 0.00 0.00 0.00 0.00 0.00 0.00 0.00 0.00 17,553.76 15.35 14.07 0.00
2/28/2021 0.00 0.00 0.00 0.00 0.00 0.00 0.00 0.00 0.00 0.00 0.00 0.00 17,553.76 15.33 14.10 0.00
3/1/2021 0.00 0.00 0.00 0.00 0.00 0.00 0.00 0.00 0.00 0.00 0.00 0.00 17,553.76 15.31 13.94 0.00
3/2/2021 0.00 220.00 220.00 0.00 0.00 0.00 0.00 436.36 436.36 0.00 0.00 0.00 17,990.12 15.30 13.84 0.00
3/3/2021 0.00 160.00 160.00 0.00 0.00 0.00 0.00 317.36 317.36 0.00 0.00 0.00 18,307.48 15.29 14.02 0.14
3/4/2021 0.00 220.00 220.00 0.00 0.00 0.00 0.00 436.36 436.36 0.00 0.00 0.00 18,743.84 15.26 14.00 0.00
3/5/2021 0.00 0.00 0.00 0.00 0.00 0.00 0.00 0.00 0.00 0.00 0.00 0.00 18,743.84 15.23 13.97 0.00
3/6/2021 157.00 175.00 175.00 0.00 0.00 157.00 311.41 347.11 347.11 0.00 0.00 311.41 19,090.95 15.21 14.14 0.45
3/7/2021 0.00 0.00 0.00 0.00 0.00 0.00 0.00 #N/A 0.00 0.00 0.00 0.00 #N/A 15.21 14.10 0.00
  0.00 0.00 0.00 0.00 0.00 0.00 0.00 #N/A 0.00 0.00 0.00 0.00 #N/A #N/A 14.10 0.00
  0.00 0.00 0.00 0.00 0.00 0.00 0.00 #N/A 0.00 0.00 0.00 0.00 #N/A #N/A 14.10 0.00
  0.00 0.00 0.00 0.00 0.00 0.00 0.00 #N/A 0.00 0.00 0.00 0.00 #N/A #N/A 14.10 0.00
  0.00 0.00 0.00 0.00 0.00 0.00 0.00 #N/A 0.00 0.00 0.00 0.00 #N/A #N/A 14.10 0.00
  0.00 0.00 0.00 0.00 0.00 0.00 0.00 #N/A 0.00 0.00 0.00 0.00 #N/A #N/A 14.10 0.00
  0.00 0.00 0.00 0.00 0.00 0.00 0.00 #N/A 0.00 0.00 0.00 0.00 #N/A #N/A 14.10 0.00
  0.00 0.00 0.00 0.00 0.00 0.00 0.00 #N/A 0.00 0.00 0.00 0.00 #N/A #N/A 14.10 0.00
  0.00 0.00 0.00 0.00 0.00 0.00 0.00 #N/A 0.00 0.00 0.00 0.00 #N/A #N/A 14.10 0.00
  0.00 0.00 0.00 0.00 0.00 0.00 0.00 #N/A 0.00 0.00 0.00 0.00 #N/A #N/A 14.10 0.00
  0.00 0.00 0.00 0.00 0.00 0.00 0.00 #N/A 0.00 0.00 0.00 0.00 #N/A #N/A 14.10 0.00
  0.00 0.00 0.00 0.00 0.00 0.00 0.00 #N/A 0.00 0.00 0.00 0.00 #N/A #N/A 14.10 0.00
  0.00 0.00 0.00 0.00 0.00 0.00 0.00 #N/A 0.00 0.00 0.00 0.00 #N/A #N/A 14.10 0.00
  0.00 0.00 0.00 0.00 0.00 0.00 0.00 #N/A 0.00 0.00 0.00 0.00 #N/A #N/A 14.10 0.00
  0.00 0.00 0.00 0.00 0.00 0.00 0.00 #N/A 0.00 0.00 0.00 0.00 #N/A #N/A 14.10 0.00
  0.00 0.00 0.00 0.00 0.00 0.00 0.00 #N/A 0.00 0.00 0.00 0.00 #N/A #N/A 14.10 0.00
  0.00 0.00 0.00 0.00 0.00 0.00 0.00 #N/A 0.00 0.00 0.00 0.00 #N/A #N/A 14.10 0.00
  0.00 0.00 0.00 0.00 0.00 0.00 0.00 #N/A 0.00 0.00 0.00 0.00 #N/A #N/A 14.10 0.00
  0.00 0.00 0.00 0.00 0.00 0.00 0.00 #N/A 0.00 0.00 0.00 0.00 #N/A #N/A 14.10 0.00
  0.00 0.00 0.00 0.00 0.00 0.00 0.00 #N/A 0.00 0.00 0.00 0.00 #N/A #N/A 14.10 0.00
  0.00 0.00 0.00 0.00 0.00 0.00 0.00 #N/A 0.00 0.00 0.00 0.00 #N/A #N/A 14.10 0.00
  0.00 0.00 0.00 0.00 0.00 0.00 0.00 #N/A 0.00 0.00 0.00 0.00 #N/A #N/A 14.10 0.00
  0.00 0.00 0.00 0.00 0.00 0.00 0.00 #N/A 0.00 0.00 0.00 0.00 #N/A #N/A 14.10 0.00
  0.00 0.00 0.00 0.00 0.00 0.00 0.00 #N/A 0.00 0.00 0.00 0.00 #N/A #N/A 14.10 0.00
  0.00 0.00 0.00 0.00 0.00 0.00 0.00 #N/A 0.00 0.00 0.00 0.00 #N/A #N/A 14.10 0.00
  0.00 0.00 0.00 0.00 0.00 0.00 0.00 #N/A 0.00 0.00 0.00 0.00 #N/A #N/A 14.10 0.00
  0.00 0.00 0.00 0.00 0.00 0.00 0.00 #N/A 0.00 0.00 0.00 0.00 #N/A #N/A 14.10 0.00
  0.00 0.00 0.00 0.00 0.00 0.00 0.00 #N/A 0.00 0.00 0.00 0.00 #N/A #N/A 14.10 0.00
  0.00 0.00 0.00 0.00 0.00 0.00 0.00 #N/A 0.00 0.00 0.00 0.00 #N/A #N/A 14.10 0.00
  0.00 0.00 0.00 0.00 0.00 0.00 0.00 #N/A 0.00 0.00 0.00 0.00 #N/A #N/A 14.10 0.00
  0.00 0.00 0.00 0.00 0.00 0.00 0.00 #N/A 0.00 0.00 0.00 0.00 #N/A #N/A 14.10 0.00
  0.00 0.00 0.00 0.00 0.00 0.00 0.00 #N/A 0.00 0.00 0.00 0.00 #N/A #N/A 14.10 0.00
  0.00 0.00 0.00 0.00 0.00 0.00 0.00 #N/A 0.00 0.00 0.00 0.00 #N/A #N/A 14.10 0.00
  0.00 0.00 0.00 0.00 0.00 0.00 0.00 #N/A 0.00 0.00 0.00 0.00 #N/A #N/A 14.10 0.00
  0.00 0.00 0.00 0.00 0.00 0.00 0.00 #N/A 0.00 0.00 0.00 0.00 #N/A #N/A 14.10 0.00
  0.00 0.00 0.00 0.00 0.00 0.00 0.00 #N/A 0.00 0.00 0.00 0.00 #N/A #N/A 14.10 0.00
  0.00 0.00 0.00 0.00 0.00 0.00 0.00 #N/A 0.00 0.00 0.00 0.00 #N/A #N/A 14.10 0.00
  0.00 0.00 0.00 0.00 0.00 0.00 0.00 #N/A 0.00 0.00 0.00 0.00 #N/A #N/A 14.10 0.00
  0.00 0.00 0.00 0.00 0.00 0.00 0.00 #N/A 0.00 0.00 0.00 0.00 #N/A #N/A 14.10 0.00
  0.00 0.00 0.00 0.00 0.00 0.00 0.00 #N/A 0.00 0.00 0.00 0.00 #N/A #N/A 14.10 0.00
  0.00 0.00 0.00 0.00 0.00 0.00 0.00 #N/A 0.00 0.00 0.00 0.00 #N/A #N/A 14.10 0.00
  0.00 0.00 0.00 0.00 0.00 0.00 0.00 #N/A 0.00 0.00 0.00 0.00 #N/A #N/A 14.10 0.00
  0.00 0.00 0.00 0.00 0.00 0.00 0.00 #N/A 0.00 0.00 0.00 0.00 #N/A #N/A 14.10 0.00
  0.00 0.00 0.00 0.00 0.00 0.00 0.00 #N/A 0.00 0.00 0.00 0.00 #N/A #N/A 14.10 0.00
  0.00 0.00 0.00 0.00 0.00 0.00 0.00 #N/A 0.00 0.00 0.00 0.00 #N/A #N/A 14.10 0.00
  0.00 0.00 0.00 0.00 0.00 0.00 0.00 #N/A 0.00 0.00 0.00 0.00 #N/A #N/A 14.10 0.00
  0.00 0.00 0.00 0.00 0.00 0.00 0.00 #N/A 0.00 0.00 0.00 0.00 #N/A #N/A 14.10 0.00
  0.00 0.00 0.00 0.00 0.00 0.00 0.00 #N/A 0.00 0.00 0.00 0.00 #N/A #N/A 14.10 0.00
  0.00 0.00 0.00 0.00 0.00 0.00 0.00 #N/A 0.00 0.00 0.00 0.00 #N/A #N/A 14.10 0.00
  0.00 0.00 0.00 0.00 0.00 0.00 0.00 #N/A 0.00 0.00 0.00 0.00 #N/A #N/A 14.10 0.00
  0.00 0.00 0.00 0.00 0.00 0.00 0.00 #N/A 0.00 0.00 0.00 0.00 #N/A #N/A 14.10 0.00
  0.00 0.00 0.00 0.00 0.00 0.00 0.00 #N/A 0.00 0.00 0.00 0.00 #N/A #N/A 14.10 0.00
  0.00 0.00 0.00 0.00 0.00 0.00 0.00 #N/A 0.00 0.00 0.00 0.00 #N/A #N/A 14.10 0.00
  0.00 0.00 0.00 0.00 0.00 0.00 0.00 #N/A 0.00 0.00 0.00 0.00 #N/A #N/A 14.10 0.00
  0.00 0.00 0.00 0.00 0.00 0.00 0.00 #N/A 0.00 0.00 0.00 0.00 #N/A #N/A 14.10 0.00
  0.00 0.00 0.00 0.00 0.00 0.00 0.00 #N/A 0.00 0.00 0.00 0.00 #N/A #N/A 14.10 0.00
  0.00 0.00 0.00 0.00 0.00 0.00 0.00 #N/A 0.00 0.00 0.00 0.00 #N/A #N/A 14.10 0.00
  0.00 0.00 0.00 0.00 0.00 0.00 0.00 #N/A 0.00 0.00 0.00 0.00 #N/A #N/A 14.10 0.00
  0.00 0.00 0.00 0.00 0.00 0.00 0.00 #N/A 0.00 0.00 0.00 0.00 #N/A #N/A 14.10 0.00
  0.00 0.00 0.00 0.00 0.00 0.00 0.00 #N/A 0.00 0.00 0.00 0.00 #N/A #N/A 14.10 0.00
  0.00 0.00 0.00 0.00 0.00 0.00 0.00 #N/A 0.00 0.00 0.00 0.00 #N/A #N/A 14.10 0.00
  0.00 0.00 0.00 0.00 0.00 0.00 0.00 #N/A 0.00 0.00 0.00 0.00 #N/A #N/A 14.10 0.00
  0.00 0.00 0.00 0.00 0.00 0.00 0.00 #N/A 0.00 0.00 0.00 0.00 #N/A #N/A 14.10 0.00
  0.00 0.00 0.00 0.00 0.00 0.00 0.00 #N/A 0.00 0.00 0.00 0.00 #N/A #N/A 14.10 0.00
  0.00 0.00 0.00 0.00 0.00 0.00 0.00 #N/A 0.00 0.00 0.00 0.00 #N/A #N/A 14.10 0.00
  0.00 0.00 0.00 0.00 0.00 0.00 0.00 #N/A 0.00 0.00 0.00 0.00 #N/A #N/A 14.10 0.00
  0.00 0.00 0.00 0.00 0.00 0.00 0.00 #N/A 0.00 0.00 0.00 0.00 #N/A #N/A 14.10 0.00
  0.00 0.00 0.00 0.00 0.00 0.00 0.00 #N/A 0.00 0.00 0.00 0.00 #N/A #N/A 14.10 0.00
  0.00 0.00 0.00 0.00 0.00 0.00 0.00 #N/A 0.00 0.00 0.00 0.00 #N/A #N/A 14.10 0.00
  0.00 0.00 0.00 0.00 0.00 0.00 0.00 #N/A 0.00 0.00 0.00 0.00 #N/A #N/A 14.10 0.00
  0.00 0.00 0.00 0.00 0.00 0.00 0.00 #N/A 0.00 0.00 0.00 0.00 #N/A #N/A 14.10 0.00
  0.00 0.00 0.00 0.00 0.00 0.00 0.00 #N/A 0.00 0.00 0.00 0.00 #N/A #N/A 14.10 0.00
  0.00 0.00 0.00 0.00 0.00 0.00 0.00 #N/A 0.00 0.00 0.00 0.00 #N/A #N/A 14.10 0.00
  0.00 0.00 0.00 0.00 0.00 0.00 0.00 #N/A 0.00 0.00 0.00 0.00 #N/A #N/A 14.10 0.00
  0.00 0.00 0.00 0.00 0.00 0.00 0.00 #N/A 0.00 0.00 0.00 0.00 #N/A #N/A 14.10 0.00
  0.00 0.00 0.00 0.00 0.00 0.00 0.00 #N/A 0.00 0.00 0.00 0.00 #N/A #N/A 14.10 0.00
  0.00 0.00 0.00 0.00 0.00 0.00 0.00 #N/A 0.00 0.00 0.00 0.00 #N/A #N/A 14.10 0.00
  0.00 0.00 0.00 0.00 0.00 0.00 0.00 #N/A 0.00 0.00 0.00 0.00 #N/A #N/A 14.10 0.00
  0.00 0.00 0.00 0.00 0.00 0.00 0.00 #N/A 0.00 0.00 0.00 0.00 #N/A #N/A 14.10 0.00
  0.00 0.00 0.00 0.00 0.00 0.00 0.00 #N/A 0.00 0.00 0.00 0.00 #N/A #N/A 14.10 0.00
  0.00 0.00 0.00 0.00 0.00 0.00 0.00 #N/A 0.00 0.00 0.00 0.00 #N/A #N/A 14.10 0.00
  0.00 0.00 0.00 0.00 0.00 0.00 0.00 #N/A 0.00 0.00 0.00 0.00 #N/A #N/A 14.10 0.00
  0.00 0.00 0.00 0.00 0.00 0.00 0.00 #N/A 0.00 0.00 0.00 0.00 #N/A #N/A 14.10 0.00
  0.00 0.00 0.00 0.00 0.00 0.00 0.00 #N/A 0.00 0.00 0.00 0.00 #N/A #N/A 14.10 0.00
  0.00 0.00 0.00 0.00 0.00 0.00 0.00 #N/A 0.00 0.00 0.00 0.00 #N/A #N/A 14.10 0.00
  0.00 0.00 0.00 0.00 0.00 0.00 0.00 #N/A 0.00 0.00 0.00 0.00 #N/A #N/A 14.10 0.00
  0.00 0.00 0.00 0.00 0.00 0.00 0.00 #N/A 0.00 0.00 0.00 0.00 #N/A #N/A 14.10 0.00
  0.00 0.00 0.00 0.00 0.00 0.00 0.00 #N/A 0.00 0.00 0.00 0.00 #N/A #N/A 14.10 0.00
  0.00 0.00 0.00 0.00 0.00 0.00 0.00 #N/A 0.00 0.00 0.00 0.00 #N/A #N/A 14.10 0.00
  0.00 0.00 0.00 0.00 0.00 0.00 0.00 #N/A 0.00 0.00 0.00 0.00 #N/A #N/A 14.10 0.00
  0.00 0.00 0.00 0.00 0.00 0.00 0.00 #N/A 0.00 0.00 0.00 0.00 #N/A #N/A 14.10 0.00
  0.00 0.00 0.00 0.00 0.00 0.00 0.00 #N/A 0.00 0.00 0.00 0.00 #N/A #N/A 14.10 0.00
  0.00 0.00 0.00 0.00 0.00 0.00 0.00 #N/A 0.00 0.00 0.00 0.00 #N/A #N/A 14.10 0.00
  0.00 0.00 0.00 0.00 0.00 0.00 0.00 #N/A 0.00 0.00 0.00 0.00 #N/A #N/A 14.10 0.00
  0.00 0.00 0.00 0.00 0.00 0.00 0.00 #N/A 0.00 0.00 0.00 0.00 #N/A #N/A 14.10 0.00
  0.00 0.00 0.00 0.00 0.00 0.00 0.00 #N/A 0.00 0.00 0.00 0.00 #N/A #N/A 14.10 0.00
  0.00 0.00 0.00 0.00 0.00 0.00 0.00 #N/A 0.00 0.00 0.00 0.00 #N/A #N/A 14.10 0.00
  0.00 0.00 0.00 0.00 0.00 0.00 0.00 #N/A 0.00 0.00 0.00 0.00 #N/A #N/A 14.10 0.00
  0.00 0.00 0.00 0.00 0.00 0.00 0.00 #N/A 0.00 0.00 0.00 0.00 #N/A #N/A 14.10 0.00
  0.00 0.00 0.00 0.00 0.00 0.00 0.00 #N/A 0.00 0.00 0.00 0.00 #N/A #N/A 14.10 0.00
  0.00 0.00 0.00 0.00 0.00 0.00 0.00 #N/A 0.00 0.00 0.00 0.00 #N/A #N/A 14.10 0.00
  0.00 0.00 0.00 0.00 0.00 0.00 0.00 #N/A 0.00 0.00 0.00 0.00 #N/A #N/A 14.10 0.00
  0.00 0.00 0.00 0.00 0.00 0.00 0.00 #N/A 0.00 0.00 0.00 0.00 #N/A #N/A 14.10 0.00
  0.00 0.00 0.00 0.00 0.00 0.00 0.00 #N/A 0.00 0.00 0.00 0.00 #N/A #N/A 14.10 0.00
  0.00 0.00 0.00 0.00 0.00 0.00 0.00 #N/A 0.00 0.00 0.00 0.00 #N/A #N/A 14.10 0.00
  0.00 0.00 0.00 0.00 0.00 0.00 0.00 #N/A 0.00 0.00 0.00 0.00 #N/A #N/A 14.10 0.00
  0.00 0.00 0.00 0.00 0.00 0.00 0.00 #N/A 0.00 0.00 0.00 0.00 #N/A #N/A 14.10 0.00
  0.00 0.00 0.00 0.00 0.00 0.00 0.00 #N/A 0.00 0.00 0.00 0.00 #N/A #N/A 14.10 0.00
  0.00 0.00 0.00 0.00 0.00 0.00 0.00 #N/A 0.00 0.00 0.00 0.00 #N/A #N/A 14.10 0.00
  0.00 0.00 0.00 0.00 0.00 0.00 0.00 #N/A 0.00 0.00 0.00 0.00 #N/A #N/A 14.10 0.00
  0.00 0.00 0.00 0.00 0.00 0.00 0.00 #N/A 0.00 0.00 0.00 0.00 #N/A #N/A 14.10 0.00
  0.00 0.00 0.00 0.00 0.00 0.00 0.00 #N/A 0.00 0.00 0.00 0.00 #N/A #N/A 14.10 0.00
  0.00 0.00 0.00 0.00 0.00 0.00 0.00 #N/A 0.00 0.00 0.00 0.00 #N/A #N/A 14.10 0.00
  0.00 0.00 0.00 0.00 0.00 0.00 0.00 #N/A 0.00 0.00 0.00 0.00 #N/A #N/A 14.10 0.00
  0.00 0.00 0.00 0.00 0.00 0.00 0.00 #N/A 0.00 0.00 0.00 0.00 #N/A #N/A 14.10 0.00
  0.00 0.00 0.00 0.00 0.00 0.00 0.00 #N/A 0.00 0.00 0.00 0.00 #N/A #N/A 14.10 0.00
  0.00 0.00 0.00 0.00 0.00 0.00 0.00 #N/A 0.00 0.00 0.00 0.00 #N/A #N/A 14.10 0.00
  0.00 0.00 0.00 0.00 0.00 0.00 0.00 #N/A 0.00 0.00 0.00 0.00 #N/A #N/A 14.10 0.00
  0.00 0.00 0.00 0.00 0.00 0.00 0.00 #N/A 0.00 0.00 0.00 0.00 #N/A #N/A 14.10 0.00
  0.00 0.00 0.00 0.00 0.00 0.00 0.00 #N/A 0.00 0.00 0.00 0.00 #N/A #N/A 14.10 0.00
  0.00 0.00 0.00 0.00 0.00 0.00 0.00 #N/A 0.00 0.00 0.00 0.00 #N/A #N/A 14.10 0.00
  0.00 0.00 0.00 0.00 0.00 0.00 0.00 #N/A 0.00 0.00 0.00 0.00 #N/A #N/A 14.10 0.00
  0.00 0.00 0.00 0.00 0.00 0.00 0.00 #N/A 0.00 0.00 0.00 0.00 #N/A #N/A 14.10 0.00
  0.00 0.00 0.00 0.00 0.00 0.00 0.00 #N/A 0.00 0.00 0.00 0.00 #N/A #N/A 14.10 0.00
  0.00 0.00 0.00 0.00 0.00 0.00 0.00 #N/A 0.00 0.00 0.00 0.00 #N/A #N/A 14.10 0.00
  0.00 0.00 0.00 0.00 0.00 0.00 0.00 #N/A 0.00 0.00 0.00 0.00 #N/A #N/A 14.10 0.00
  0.00 0.00 0.00 0.00 0.00 0.00 0.00 #N/A 0.00 0.00 0.00 0.00 #N/A #N/A 14.10 0.00
  0.00 0.00 0.00 0.00 0.00 0.00 0.00 #N/A 0.00 0.00 0.00 0.00 #N/A #N/A 14.10 0.00
  0.00 0.00 0.00 0.00 0.00 0.00 0.00 #N/A 0.00 0.00 0.00 0.00 #N/A #N/A 14.10 0.00
  0.00 0.00 0.00 0.00 0.00 0.00 0.00 #N/A 0.00 0.00 0.00 0.00 #N/A #N/A 14.10 0.00
  0.00 0.00 0.00 0.00 0.00 0.00 0.00 #N/A 0.00 0.00 0.00 0.00 #N/A #N/A 14.10 0.00
  0.00 0.00 0.00 0.00 0.00 0.00 0.00 #N/A 0.00 0.00 0.00 0.00 #N/A #N/A 14.10 0.00
  0.00 0.00 0.00 0.00 0.00 0.00 0.00 #N/A 0.00 0.00 0.00 0.00 #N/A #N/A 14.10 0.00
  0.00 0.00 0.00 0.00 0.00 0.00 0.00 #N/A 0.00 0.00 0.00 0.00 #N/A #N/A 14.10 0.00
  0.00 0.00 0.00 0.00 0.00 0.00 0.00 #N/A 0.00 0.00 0.00 0.00 #N/A #N/A 14.10 0.00
  0.00 0.00 0.00 0.00 0.00 0.00 0.00 #N/A 0.00 0.00 0.00 0.00 #N/A #N/A 14.10 0.00
  0.00 0.00 0.00 0.00 0.00 0.00 0.00 #N/A 0.00 0.00 0.00 0.00 #N/A #N/A 14.10 0.00
  0.00 0.00 0.00 0.00 0.00 0.00 0.00 #N/A 0.00 0.00 0.00 0.00 #N/A #N/A 14.10 0.00
  0.00 0.00 0.00 0.00 0.00 0.00 0.00 #N/A 0.00 0.00 0.00 0.00 #N/A #N/A 14.10 0.00
  0.00 0.00 0.00 0.00 0.00 0.00 0.00 #N/A 0.00 0.00 0.00 0.00 #N/A #N/A 14.10 0.00
  0.00 0.00 0.00 0.00 0.00 0.00 0.00 #N/A 0.00 0.00 0.00 0.00 #N/A #N/A 14.10 0.00
  0.00 0.00 0.00 0.00 0.00 0.00 0.00 #N/A 0.00 0.00 0.00 0.00 #N/A #N/A 14.10 0.00
  0.00 0.00 0.00 0.00 0.00 0.00 0.00 #N/A 0.00 0.00 0.00 0.00 #N/A #N/A 14.10 0.00
  0.00 0.00 0.00 0.00 0.00 0.00 0.00 #N/A 0.00 0.00 0.00 0.00 #N/A #N/A 14.10 0.00
  0.00 0.00 0.00 0.00 0.00 0.00 0.00 #N/A 0.00 0.00 0.00 0.00 #N/A #N/A 14.10 0.00
  0.00 0.00 0.00 0.00 0.00 0.00 0.00 #N/A 0.00 0.00 0.00 0.00 #N/A #N/A 14.10 0.00
  0.00 0.00 0.00 0.00 0.00 0.00 0.00 #N/A 0.00 0.00 0.00 0.00 #N/A #N/A 14.10 0.00
  0.00 0.00 0.00 0.00 0.00 0.00 0.00 #N/A 0.00 0.00 0.00 0.00 #N/A #N/A 14.10 0.00
  0.00 0.00 0.00 0.00 0.00 0.00 0.00 #N/A 0.00 0.00 0.00 0.00 #N/A #N/A 14.10 0.00
  0.00 0.00 0.00 0.00 0.00 0.00 0.00 #N/A 0.00 0.00 0.00 0.00 #N/A #N/A 14.10 0.00
  0.00 0.00 0.00 0.00 0.00 0.00 0.00 #N/A 0.00 0.00 0.00 0.00 #N/A #N/A 14.10 0.00
  0.00 0.00 0.00 0.00 0.00 0.00 0.00 #N/A 0.00 0.00 0.00 0.00 #N/A #N/A 14.10 0.00
  0.00 0.00 0.00 0.00 0.00 0.00 0.00 #N/A 0.00 0.00 0.00 0.00 #N/A #N/A 14.10 0.00
  0.00 0.00 0.00 0.00 0.00 0.00 0.00 #N/A 0.00 0.00 0.00 0.00 #N/A #N/A 14.10 0.00
  0.00 0.00 0.00 0.00 0.00 0.00 0.00 #N/A 0.00 0.00 0.00 0.00 #N/A #N/A 14.10 0.00
  0.00 0.00 0.00 0.00 0.00 0.00 0.00 #N/A 0.00 0.00 0.00 0.00 #N/A #N/A 14.10 0.00
  0.00 0.00 0.00 0.00 0.00 0.00 0.00 #N/A 0.00 0.00 0.00 0.00 #N/A #N/A 14.10 0.00
  0.00 0.00 0.00 0.00 0.00 0.00 0.00 #N/A 0.00 0.00 0.00 0.00 #N/A #N/A 14.10 0.00
  0.00 0.00 0.00 0.00 0.00 0.00 0.00 #N/A 0.00 0.00 0.00 0.00 #N/A #N/A 14.10 0.00
  0.00 0.00 0.00 0.00 0.00 0.00 0.00 #N/A 0.00 0.00 0.00 0.00 #N/A #N/A 14.10 0.00
  0.00 0.00 0.00 0.00 0.00 0.00 0.00 #N/A 0.00 0.00 0.00 0.00 #N/A #N/A 14.10 0.00
  0.00 0.00 0.00 0.00 0.00 0.00 0.00 #N/A 0.00 0.00 0.00 0.00 #N/A #N/A 14.10 0.00
  0.00 0.00 0.00 0.00 0.00 0.00 0.00 #N/A 0.00 0.00 0.00 0.00 #N/A #N/A 14.10 0.00
  0.00 0.00 0.00 0.00 0.00 0.00 0.00 #N/A 0.00 0.00 0.00 0.00 #N/A #N/A 14.10 0.00
  0.00 0.00 0.00 0.00 0.00 0.00 0.00 #N/A 0.00 0.00 0.00 0.00 #N/A #N/A 14.10 0.00
  0.00 0.00 0.00 0.00 0.00 0.00 0.00 #N/A 0.00 0.00 0.00 0.00 #N/A #N/A 14.10 0.00
  0.00 0.00 0.00 0.00 0.00 0.00 0.00 #N/A 0.00 0.00 0.00 0.00 #N/A #N/A 14.10 0.00
  0.00 0.00 0.00 0.00 0.00 0.00 0.00 #N/A 0.00 0.00 0.00 0.00 #N/A #N/A 14.10 0.00
  0.00 0.00 0.00 0.00 0.00 0.00 0.00 #N/A 0.00 0.00 0.00 0.00 #N/A #N/A 14.10 0.00
  0.00 0.00 0.00 0.00 0.00 0.00 0.00 #N/A 0.00 0.00 0.00 0.00 #N/A #N/A 14.10 0.00
  0.00 0.00 0.00 0.00 0.00 0.00 0.00 #N/A 0.00 0.00 0.00 0.00 #N/A #N/A 14.10 0.00
  0.00 0.00 0.00 0.00 0.00 0.00 0.00 #N/A 0.00 0.00 0.00 0.00 #N/A #N/A 14.10 0.00
  0.00 0.00 0.00 0.00 0.00 0.00 0.00 #N/A 0.00 0.00 0.00 0.00 #N/A #N/A 14.10 0.00
  0.00 0.00 0.00 0.00 0.00 0.00 0.00 #N/A 0.00 0.00 0.00 0.00 #N/A #N/A 14.10 0.00
  0.00 0.00 0.00 0.00 0.00 0.00 0.00 #N/A 0.00 0.00 0.00 0.00 #N/A #N/A 14.10 0.00
  0.00 0.00 0.00 0.00 0.00 0.00 0.00 #N/A 0.00 0.00 0.00 0.00 #N/A #N/A 14.10 0.00
  0.00 0.00 0.00 0.00 0.00 0.00 0.00 #N/A 0.00 0.00 0.00 0.00 #N/A #N/A 14.10 0.00
  0.00 0.00 0.00 0.00 0.00 0.00 0.00 #N/A 0.00 0.00 0.00 0.00 #N/A #N/A 14.10 0.00
  0.00 0.00 0.00 0.00 0.00 0.00 0.00 #N/A 0.00 0.00 0.00 0.00 #N/A #N/A 14.10 0.00
  0.00 0.00 0.00 0.00 0.00 0.00 0.00 #N/A 0.00 0.00 0.00 0.00 #N/A #N/A 14.10 0.00
  0.00 0.00 0.00 0.00 0.00 0.00 0.00 #N/A 0.00 0.00 0.00 0.00 #N/A #N/A 14.10 0.00
  0.00 0.00 0.00 0.00 0.00 0.00 0.00 #N/A 0.00 0.00 0.00 0.00 #N/A #N/A 14.10 0.00
  0.00 0.00 0.00 0.00 0.00 0.00 0.00 #N/A 0.00 0.00 0.00 0.00 #N/A #N/A 14.10 0.00
  0.00 0.00 0.00 0.00 0.00 0.00 0.00 #N/A 0.00 0.00 0.00 0.00 #N/A #N/A 14.10 0.00
  0.00 0.00 0.00 0.00 0.00 0.00 0.00 #N/A 0.00 0.00 0.00 0.00 #N/A #N/A 14.10 0.00
  0.00 0.00 0.00 0.00 0.00 0.00 0.00 #N/A 0.00 0.00 0.00 0.00 #N/A #N/A 14.10 0.00
  0.00 0.00 0.00 0.00 0.00 0.00 0.00 #N/A 0.00 0.00 0.00 0.00 #N/A #N/A 14.10 0.00
  0.00 0.00 0.00 0.00 0.00 0.00 0.00 #N/A 0.00 0.00 0.00 0.00 #N/A #N/A 14.10 0.00
  0.00 0.00 0.00 0.00 0.00 0.00 0.00 #N/A 0.00 0.00 0.00 0.00 #N/A #N/A 14.10 0.00
  0.00 0.00 0.00 0.00 0.00 0.00 0.00 #N/A 0.00 0.00 0.00 0.00 #N/A #N/A 14.10 0.00
  0.00 0.00 0.00 0.00 0.00 0.00 0.00 #N/A 0.00 0.00 0.00 0.00 #N/A #N/A 14.10 0.00
  0.00 0.00 0.00 0.00 0.00 0.00 0.00 #N/A 0.00 0.00 0.00 0.00 #N/A #N/A 14.10 0.00
  0.00 0.00 0.00 0.00 0.00 0.00 0.00 #N/A 0.00 0.00 0.00 0.00 #N/A #N/A 14.10 0.00
  0.00 0.00 0.00 0.00 0.00 0.00 0.00 #N/A 0.00 0.00 0.00 0.00 #N/A #N/A 14.10 0.00
  0.00 0.00 0.00 0.00 0.00 0.00 0.00 #N/A 0.00 0.00 0.00 0.00 #N/A #N/A 14.10 0.00
  0.00 0.00 0.00 0.00 0.00 0.00 0.00 #N/A 0.00 0.00 0.00 0.00 #N/A #N/A 14.10 0.00
  0.00 0.00 0.00 0.00 0.00 0.00 0.00 #N/A 0.00 0.00 0.00 0.00 #N/A #N/A 14.10 0.00
  0.00 0.00 0.00 0.00 0.00 0.00 0.00 #N/A 0.00 0.00 0.00 0.00 #N/A #N/A 14.10 0.00
  0.00 0.00 0.00 0.00 0.00 0.00 0.00 #N/A 0.00 0.00 0.00 0.00 #N/A #N/A 14.10 0.00
  0.00 0.00 0.00 0.00 0.00 0.00 0.00 #N/A 0.00 0.00 0.00 0.00 #N/A #N/A 14.10 0.00
  0.00 0.00 0.00 0.00 0.00 0.00 0.00 #N/A 0.00 0.00 0.00 0.00 #N/A #N/A 14.10 0.00
  0.00 0.00 0.00 0.00 0.00 0.00 0.00 #N/A 0.00 0.00 0.00 0.00 #N/A #N/A 14.10 0.00
  0.00 0.00 0.00 0.00 0.00 0.00 0.00 #N/A 0.00 0.00 0.00 0.00 #N/A #N/A 14.10 0.00
  0.00 0.00 0.00 0.00 0.00 0.00 0.00 #N/A 0.00 0.00 0.00 0.00 #N/A #N/A 14.10 0.00
  0.00 0.00 0.00 0.00 0.00 0.00 0.00 #N/A 0.00 0.00 0.00 0.00 #N/A #N/A 14.10 0.00
  0.00 0.00 0.00 0.00 0.00 0.00 0.00 #N/A 0.00 0.00 0.00 0.00 #N/A #N/A 14.10 0.00
  0.00 0.00 0.00 0.00 0.00 0.00 0.00 #N/A 0.00 0.00 0.00 0.00 #N/A #N/A 14.10 0.00
  0.00 0.00 0.00 0.00 0.00 0.00 0.00 #N/A 0.00 0.00 0.00 0.00 #N/A #N/A 14.10 0.00
  0.00 0.00 0.00 0.00 0.00 0.00 0.00 #N/A 0.00 0.00 0.00 0.00 #N/A #N/A 14.10 0.00
  0.00 0.00 0.00 0.00 0.00 0.00 0.00 #N/A 0.00 0.00 0.00 0.00 #N/A #N/A 14.10 0.00
  0.00 0.00 0.00 0.00 0.00 0.00 0.00 #N/A 0.00 0.00 0.00 0.00 #N/A #N/A 14.10 0.00
  0.00 0.00 0.00 0.00 0.00 0.00 0.00 #N/A 0.00 0.00 0.00 0.00 #N/A #N/A 14.10 0.00
  0.00 0.00 0.00 0.00 0.00 0.00 0.00 #N/A 0.00 0.00 0.00 0.00 #N/A #N/A 14.10 0.00
  0.00 0.00 0.00 0.00 0.00 0.00 0.00 #N/A 0.00 0.00 0.00 0.00 #N/A #N/A 14.10 0.00
  0.00 0.00 0.00 0.00 0.00 0.00 0.00 #N/A 0.00 0.00 0.00 0.00 #N/A #N/A 14.10 0.00
  0.00 0.00 0.00 0.00 0.00 0.00 0.00 #N/A 0.00 0.00 0.00 0.00 #N/A #N/A 14.10 0.00
  0.00 0.00 0.00 0.00 0.00 0.00 0.00 #N/A 0.00 0.00 0.00 0.00 #N/A #N/A 14.10 0.00
  0.00 0.00 0.00 0.00 0.00 0.00 0.00 #N/A 0.00 0.00 0.00 0.00 #N/A #N/A 14.10 0.00
  0.00 0.00 0.00 0.00 0.00 0.00 0.00 #N/A 0.00 0.00 0.00 0.00 #N/A #N/A 14.10 0.00
  0.00 0.00 0.00 0.00 0.00 0.00 0.00 #N/A 0.00 0.00 0.00 0.00 #N/A #N/A 14.10 0.00
  0.00 0.00 0.00 0.00 0.00 0.00 0.00 #N/A 0.00 0.00 0.00 0.00 #N/A #N/A 14.10 0.00
  0.00 0.00 0.00 0.00 0.00 0.00 0.00 #N/A 0.00 0.00 0.00 0.00 #N/A #N/A 14.10 0.00
  0.00 0.00 0.00 0.00 0.00 0.00 0.00 #N/A 0.00 0.00 0.00 0.00 #N/A #N/A 14.10 0.00
  0.00 0.00 0.00 0.00 0.00 0.00 0.00 #N/A 0.00 0.00 0.00 0.00 #N/A #N/A 14.10 0.00
  0.00 0.00 0.00 0.00 0.00 0.00 0.00 #N/A 0.00 0.00 0.00 0.00 #N/A #N/A 14.10 0.00
  0.00 0.00 0.00 0.00 0.00 0.00 0.00 #N/A 0.00 0.00 0.00 0.00 #N/A #N/A 14.10 0.00
  0.00 0.00 0.00 0.00 0.00 0.00 0.00 #N/A 0.00 0.00 0.00 0.00 #N/A #N/A 14.10 0.00
  0.00 0.00 0.00 0.00 0.00 0.00 0.00 #N/A 0.00 0.00 0.00 0.00 #N/A #N/A 14.10 0.00
  0.00 0.00 0.00 0.00 0.00 0.00 0.00 #N/A 0.00 0.00 0.00 0.00 #N/A #N/A 14.10 0.00
  0.00 0.00 0.00 0.00 0.00 0.00 0.00 #N/A 0.00 0.00 0.00 0.00 #N/A #N/A 14.10 0.00
  0.00 0.00 0.00 0.00 0.00 0.00 0.00 #N/A 0.00 0.00 0.00 0.00 #N/A #N/A 14.10 0.00
  0.00 0.00 0.00 0.00 0.00 0.00 0.00 #N/A 0.00 0.00 0.00 0.00 #N/A #N/A 14.10 0.00
  0.00 0.00 0.00 0.00 0.00 0.00 0.00 #N/A 0.00 0.00 0.00 0.00 #N/A #N/A 14.10 0.00
  0.00 0.00 0.00 0.00 0.00 0.00 0.00 #N/A 0.00 0.00 0.00 0.00 #N/A #N/A 14.10 0.00
  0.00 0.00 0.00 0.00 0.00 0.00 0.00 #N/A 0.00 0.00 0.00 0.00 #N/A #N/A 14.10 0.00
  0.00 0.00 0.00 0.00 0.00 0.00 0.00 #N/A 0.00 0.00 0.00 0.00 #N/A #N/A 14.10 0.00
  0.00 0.00 0.00 0.00 0.00 0.00 0.00 #N/A 0.00 0.00 0.00 0.00 #N/A #N/A 14.10 0.00
  0.00 0.00 0.00 0.00 0.00 0.00 0.00 #N/A 0.00 0.00 0.00 0.00 #N/A #N/A 14.10 0.00
  0.00 0.00 0.00 0.00 0.00 0.00 0.00 #N/A 0.00 0.00 0.00 0.00 #N/A #N/A 14.10 0.00
  0.00 0.00 0.00 0.00 0.00 0.00 0.00 #N/A 0.00 0.00 0.00 0.00 #N/A #N/A 14.10 0.00
  0.00 0.00 0.00 0.00 0.00 0.00 0.00 #N/A 0.00 0.00 0.00 0.00 #N/A #N/A 14.10 0.00
  0.00 0.00 0.00 0.00 0.00 0.00 0.00 #N/A 0.00 0.00 0.00 0.00 #N/A #N/A 14.10 0.00
  0.00 0.00 0.00 0.00 0.00 0.00 0.00 #N/A 0.00 0.00 0.00 0.00 #N/A #N/A 14.10 0.00
  0.00 0.00 0.00 0.00 0.00 0.00 0.00 #N/A 0.00 0.00 0.00 0.00 #N/A #N/A 14.10 0.00
  0.00 0.00 0.00 0.00 0.00 0.00 0.00 #N/A 0.00 0.00 0.00 0.00 #N/A #N/A 14.10 0.00
  0.00 0.00 0.00 0.00 0.00 0.00 0.00 #N/A 0.00 0.00 0.00 0.00 #N/A #N/A 14.10 0.00
  0.00 0.00 0.00 0.00 0.00 0.00 0.00 #N/A 0.00 0.00 0.00 0.00 #N/A #N/A 14.10 0.00
  0.00 0.00 0.00 0.00 0.00 0.00 0.00 #N/A 0.00 0.00 0.00 0.00 #N/A #N/A 14.10 0.00
  0.00 0.00 0.00 0.00 0.00 0.00 0.00 #N/A 0.00 0.00 0.00 0.00 #N/A #N/A 14.10 0.00
  0.00 0.00 0.00 0.00 0.00 0.00 0.00 #N/A 0.00 0.00 0.00 0.00 #N/A #N/A 14.10 0.00
  0.00 0.00 0.00 0.00 0.00 0.00 0.00 #N/A 0.00 0.00 0.00 0.00 #N/A #N/A 14.10 0.00
  0.00 0.00 0.00 0.00 0.00 0.00 0.00 #N/A 0.00 0.00 0.00 0.00 #N/A #N/A 14.10 0.00
  0.00 0.00 0.00 0.00 0.00 0.00 0.00 #N/A 0.00 0.00 0.00 0.00 #N/A #N/A 14.10 0.00
  0.00 0.00 0.00 0.00 0.00 0.00 0.00 #N/A 0.00 0.00 0.00 0.00 #N/A #N/A 14.10 0.00
  0.00 0.00 0.00 0.00 0.00 0.00 0.00 #N/A 0.00 0.00 0.00 0.00 #N/A #N/A 14.10 0.00
  0.00 0.00 0.00 0.00 0.00 0.00 0.00 #N/A 0.00 0.00 0.00 0.00 #N/A #N/A 14.10 0.00
  0.00 0.00 0.00 0.00 0.00 0.00 0.00 #N/A 0.00 0.00 0.00 0.00 #N/A #N/A 14.10 0.00
  0.00 0.00 0.00 0.00 0.00 0.00 0.00 #N/A 0.00 0.00 0.00 0.00 #N/A #N/A 14.10 0.00
  0.00 0.00 0.00 0.00 0.00 0.00 0.00 #N/A 0.00 0.00 0.00 0.00 #N/A #N/A 14.10 0.00
  0.00 0.00 0.00 0.00 0.00 0.00 0.00 #N/A 0.00 0.00 0.00 0.00 #N/A #N/A 14.10 0.00
  0.00 0.00 0.00 0.00 0.00 0.00 0.00 #N/A 0.00 0.00 0.00 0.00 #N/A #N/A 14.10 0.00
  0.00 0.00 0.00 0.00 0.00 0.00 0.00 #N/A 0.00 0.00 0.00 0.00 #N/A #N/A 14.10 0.00
  0.00 0.00 0.00 0.00 0.00 0.00 0.00 #N/A 0.00 0.00 0.00 0.00 #N/A #N/A 14.10 0.00
  0.00 0.00 0.00 0.00 0.00 0.00 0.00 #N/A 0.00 0.00 0.00 0.00 #N/A #N/A 14.10 0.00
  0.00 0.00 0.00 0.00 0.00 0.00 0.00 #N/A 0.00 0.00 0.00 0.00 #N/A #N/A 14.10 0.00
  0.00 0.00 0.00 0.00 0.00 0.00 0.00 #N/A 0.00 0.00 0.00 0.00 #N/A #N/A 14.10 0.00
  0.00 0.00 0.00 0.00 0.00 0.00 0.00 #N/A 0.00 0.00 0.00 0.00 #N/A #N/A 14.10 0.00
  0.00 0.00 0.00 0.00 0.00 0.00 0.00 #N/A 0.00 0.00 0.00 0.00 #N/A #N/A 14.10 0.00
  0.00 0.00 0.00 0.00 0.00 0.00 0.00 #N/A 0.00 0.00 0.00 0.00 #N/A #N/A 14.10 0.00
  0.00 0.00 0.00 0.00 0.00 0.00 0.00 #N/A 0.00 0.00 0.00 0.00 #N/A #N/A 14.10 0.00
  0.00 0.00 0.00 0.00 0.00 0.00 0.00 #N/A 0.00 0.00 0.00 0.00 #N/A #N/A 14.10 0.00
  0.00 0.00 0.00 0.00 0.00 0.00 0.00 #N/A 0.00 0.00 0.00 0.00 #N/A #N/A 14.10 0.00
  0.00 0.00 0.00 0.00 0.00 0.00 0.00 #N/A 0.00 0.00 0.00 0.00 #N/A #N/A 14.10 0.00
  0.00 0.00 0.00 0.00 0.00 0.00 0.00 #N/A 0.00 0.00 0.00 0.00 #N/A #N/A 14.10 0.00
  0.00 0.00 0.00 0.00 0.00 0.00 0.00 #N/A 0.00 0.00 0.00 0.00 #N/A #N/A 14.10 0.00
  0.00 0.00 0.00 0.00 0.00 0.00 0.00 #N/A 0.00 0.00 0.00 0.00 #N/A #N/A 14.10 0.00
  0.00 0.00 0.00 0.00 0.00 0.00 0.00 #N/A 0.00 0.00 0.00 0.00 #N/A #N/A 14.10 0.00
  0.00 0.00 0.00 0.00 0.00 0.00 0.00 #N/A 0.00 0.00 0.00 0.00 #N/A #N/A 14.10 0.00
  0.00 0.00 0.00 0.00 0.00 0.00 0.00 #N/A 0.00 0.00 0.00 0.00 #N/A #N/A 14.10 0.00
  0.00 0.00 0.00 0.00 0.00 0.00 0.00 #N/A 0.00 0.00 0.00 0.00 #N/A #N/A 14.10 0.00
  0.00 0.00 0.00 0.00 0.00 0.00 0.00 #N/A 0.00 0.00 0.00 0.00 #N/A #N/A 14.10 0.00
  0.00 0.00 0.00 0.00 0.00 0.00 0.00 #N/A 0.00 0.00 0.00 0.00 #N/A #N/A 14.10 0.00
  0.00 0.00 0.00 0.00 0.00 0.00 0.00 #N/A 0.00 0.00 0.00 0.00 #N/A #N/A 14.10 0.00
  0.00 0.00 0.00 0.00 0.00 0.00 0.00 #N/A 0.00 0.00 0.00 0.00 #N/A #N/A 14.10 0.00
  0.00 0.00 0.00 0.00 0.00 0.00 0.00 #N/A 0.00 0.00 0.00 0.00 #N/A #N/A 14.10 0.00
  0.00 0.00 0.00 0.00 0.00 0.00 0.00 #N/A 0.00 0.00 0.00 0.00 #N/A #N/A 14.10 0.00
  0.00 0.00 0.00 0.00 0.00 0.00 0.00 #N/A 0.00 0.00 0.00 0.00 #N/A #N/A 14.10 0.00
  0.00 0.00 0.00 0.00 0.00 0.00 0.00 #N/A 0.00 0.00 0.00 0.00 #N/A #N/A 14.10 0.00
  0.00 0.00 0.00 0.00 0.00 0.00 0.00 #N/A 0.00 0.00 0.00 0.00 #N/A #N/A 14.10 0.00
  0.00 0.00 0.00 0.00 0.00 0.00 0.00 #N/A 0.00 0.00 0.00 0.00 #N/A #N/A 14.10 0.00
  0.00 0.00 0.00 0.00 0.00 0.00 0.00 #N/A 0.00 0.00 0.00 0.00 #N/A #N/A 14.10 0.00
  0.00 0.00 0.00 0.00 0.00 0.00 0.00 #N/A 0.00 0.00 0.00 0.00 #N/A #N/A 14.10 0.00
  0.00 0.00 0.00 0.00 0.00 0.00 0.00 #N/A 0.00 0.00 0.00 0.00 #N/A #N/A 14.10 0.00
  0.00 0.00 0.00 0.00 0.00 0.00 0.00 #N/A 0.00 0.00 0.00 0.00 #N/A #N/A 14.10 0.00
  0.00 0.00 0.00 0.00 0.00 0.00 0.00 #N/A 0.00 0.00 0.00 0.00 #N/A #N/A 14.10 0.00
  0.00 0.00 0.00 0.00 0.00 0.00 0.00 #N/A 0.00 0.00 0.00 0.00 #N/A #N/A 14.10 0.00
  0.00 0.00 0.00 0.00 0.00 0.00 0.00 #N/A 0.00 0.00 0.00 0.00 #N/A #N/A 14.10 0.00
  0.00 0.00 0.00 0.00 0.00 0.00 0.00 #N/A 0.00 0.00 0.00 0.00 #N/A #N/A 14.10 0.00
  0.00 0.00 0.00 0.00 0.00 0.00 0.00 #N/A 0.00 0.00 0.00 0.00 #N/A #N/A 14.10 0.00
  0.00 0.00 0.00 0.00 0.00 0.00 0.00 #N/A 0.00 0.00 0.00 0.00 #N/A #N/A 14.10 0.00
  0.00 0.00 0.00 0.00 0.00 0.00 0.00 #N/A 0.00 0.00 0.00 0.00 #N/A #N/A 14.10 0.00
Totals 7,561.00 9,625.00 9,625.00 0.00 1,137.00 6,424.00 14,997.06 19,090.95 19,090.95 0.00 2,255.21 12,741.85        
* Red = Missing data (flows will be set to zero, stages will be set to the stage on the previous day)